Flight Track Log - Related Links

Times and Time Zones

All times are in EDT time to prevent confusion due to time zone crossing. See the RPA3436 flight status page for this flight to view local times or setup timezone preferences in your user account.

Time Position Orientation Groundspeed Altitude Reporting Facility
EDT Latitude Longitude Course Direction KTS MPH feet Rate Location/Type
Mon 10:57:57 AM 38.7672 -77.0319 83° East 182 209 2,900  Level Washington Center
Mon 10:58:57 AM 38.7178 -76.9806 141° Southeast 215 247 5,400 2,663 Climbing Washington Center
Mon 10:59:00 AM 39.0061 -76.5878 57° Northeast  Level FlightAware Approximate
Mon 11:00:00 AM 39.0497 -76.4759 63° Northeast  Level FlightAware Approximate
Mon 11:00:55 AM 38.8011 -76.7878 61° Northeast 212 244 10,800  Level Washington Center
Mon 11:01:00 AM 39.0958 -76.3654 61° Northeast  Level FlightAware Approximate
Mon 11:02:00 AM 39.1250 -76.2500 57° Northeast  Level FlightAware Approximate
Mon 11:02:00 AM 38.9109 -76.7101 67° East  Level Estimated
Mon 11:02:57 AM 38.9386 -76.5736 67° East 331 381 16,000  Level Washington Center
Mon 11:03:00 AM 39.1578 -76.1387 83° East  Level FlightAware Approximate
Mon 11:03:55 AM 39.0019 -76.4650 53° Northeast 362 417 18,900  Level Washington Center
Mon 11:04:56 AM 39.0278 -76.3397 75° East 363 418 21,000 1,918 Climbing Washington Center
Mon 11:05:57 AM 39.0578 -76.2092 73° East 368 423 22,800 1,008 Climbing Washington Center
Mon 11:06:55 AM 39.0894 -76.0731 73° East 375 432 23,000 101 Climbing Washington Center
Mon 11:07:56 AM 39.1192 -75.9394 74° East 381 438 23,000  Level Washington Center
Mon 11:08:56 AM 39.1611 -75.7978 69° East 381 438 23,000  Level Washington Center
Mon 11:09:57 AM 39.2322 -75.7067 45° Northeast 381 438 23,000  Level Washington Center
Mon 11:10:55 AM 39.3303 -75.6103 37° Northeast 392 451 23,000 467 Level Washington Center
Mon 11:12:57 AM 39.5156 -75.4275 37° Northeast 421 484 24,400 923 Climbing Washington Center
Mon 11:13:57 AM 39.6028 -75.3383 38° Northeast 433 498 25,800 784 Climbing Washington Center
Mon 11:16:16 AM 39.8169 -75.0492 46° Northeast 464 534 27,000 716 Climbing New York Center
Mon 11:17:18 AM 39.9028 -74.9272 47° Northeast 454 522 28,200 1,261 Climbing New York Center
Mon 11:18:15 AM 39.9878 -74.8211 44° Northeast 454 522 29,500 1,231 Climbing New York Center
Mon 11:19:15 AM 40.0942 -74.6944 42° Northeast 464 534 30,600 738 Climbing New York Center
Mon 11:20:17 AM 40.1850 -74.5936 40° Northeast 469 540 31,000 -150 Climbing New York Center
Mon 11:21:15 AM 40.3047 -74.4994 31° Northeast 486 559 30,300 -814 Descending New York Center
Mon 11:22:15 AM 40.4292 -74.4572 14° North 466 536 29,400 -373 Descending New York Center
Mon 11:24:44 AM 40.7583 -74.3717 11° North 463 533 29,000 -468 Descending Boston Center
Mon 11:26:00 AM 40.8786 -74.3368 12° North  Level FlightAware Approximate
Mon 11:26:44 AM 41.0094 -74.3050 12° North 464 534 27,300  Level Boston Center
Mon 11:28:00 AM 41.1292 -74.2667 14° North  Level FlightAware Approximate
Mon 11:28:43 AM 41.2544 -74.2347 14° North 448 516 25,400  Level Boston Center
Mon 11:29:43 AM 41.3717 -74.1967 14° North 443 510 24,400 -942 Descending Boston Center
Mon 11:30:44 AM 41.4931 -74.1639 11° North 438 504 23,500 -1,293 Descending Boston Center
Mon 11:32:00 AM 41.6125 -74.1236 14° North  Level FlightAware Approximate
Mon 11:32:44 AM 41.7275 -74.0981 14° North 427 491 20,500  Level Boston Center
Mon 11:33:44 AM 41.8217 -74.0836 North 400 460 19,000 -1,462 Descending Boston Center
Mon 11:34:43 AM 41.9058 -74.1611 326° Northwest 347 399 17,600 -1,737 Descending Boston Center
Mon 11:35:38 AM 41.9858 -74.2444 322° Northwest 358 412 15,700 -1,959 Descending Boston Center
Mon 11:36:21 AM 42.0522 -74.2686 345° North 362 417 14,400 -1,857 Descending Boston Center
Mon 11:37:44 AM 42.1825 -74.1939 23° Northeast 367 422 11,800 -1,884 Descending Boston Center
Mon 11:38:22 AM 42.2417 -74.1536 27° Northeast 355 409 10,600 -1,543 Descending Boston Center
Mon 11:39:29 AM 42.3258 -74.0969 26° Northeast 308 354 9,100 -1,128 Descending Boston Center
Mon 11:40:35 AM 42.4078 -74.0400 27° Northeast 304 350 8,100 -1,228 Descending Boston Center
Mon 11:41:36 AM 42.4978 -74.0228 North 297 342 6,500 -1,475 Descending Boston Center
Mon 11:42:37 AM 42.5772 -74.0133 North 286 329 5,100 -1,240 Descending Boston Center
Mon 11:43:37 AM 42.6522 -74.0069 North 275 316 4,000 -545 Descending Boston Center
Mon 11:44:38 AM 42.7272 -74.0003 North 267 307 4,000 -362 Level Boston Center
Mon 11:45:33 AM 42.7842 -73.9678 23° Northeast 222 255 3,300 -470 Descending Boston Center
Mon 11:46:33 AM 42.8408 -73.9353 23° Northeast 218 251 3,100 -465 Descending Boston Center
Mon 11:47:55 AM 42.9000 -73.8714 38° Northeast 190 219 2,200 -496 Descending Boston Center
Mon 11:48:34 AM 42.8900 -73.8314 109° East 189 217 2,100 -50 Descending Boston Center
Mon 11:49:56 AM 42.8678 -73.7658 115° Southeast 142 163 2,100  Level Boston Center

Login

Don't have an account? Register now (free) for customized features, flight alerts, and more!